sensor_id;sensor_type;location;lat;lon;timestamp;temperature;humidity
21189;DHT22;39071;52.420;20.896;2023-05-10T00:01:24;5.50;99.90
21189;DHT22;39071;52.420;20.896;2023-05-10T00:03:49;5.50;99.90
21189;DHT22;39071;52.420;20.896;2023-05-10T00:06:15;5.40;99.90
21189;DHT22;39071;52.420;20.896;2023-05-10T00:08:41;5.40;99.90
21189;DHT22;39071;52.420;20.896;2023-05-10T00:11:07;5.40;99.90
21189;DHT22;39071;52.420;20.896;2023-05-10T00:13:32;5.40;99.90
21189;DHT22;39071;52.420;20.896;2023-05-10T00:15:58;5.30;1.00
21189;DHT22;39071;52.420;20.896;2023-05-10T00:18:24;5.30;1.00
21189;DHT22;39071;52.420;20.896;2023-05-10T00:20:50;5.30;1.00
21189;DHT22;39071;52.420;20.896;2023-05-10T00:23:16;5.30;1.00
21189;DHT22;39071;52.420;20.896;2023-05-10T00:25:41;5.30;1.00
21189;DHT22;39071;52.420;20.896;2023-05-10T00:28:07;5.20;1.00
21189;DHT22;39071;52.420;20.896;2023-05-10T00:30:33;5.20;1.00
21189;DHT22;39071;52.420;20.896;2023-05-10T00:32:59;5.20;1.00
21189;DHT22;39071;52.420;20.896;2023-05-10T00:35:24;5.10;1.00
21189;DHT22;39071;52.420;20.896;2023-05-10T00:37:51;5.10;1.00
21189;DHT22;39071;52.420;20.896;2023-05-10T00:40:17;5.50;1.00
21189;DHT22;39071;52.420;20.896;2023-05-10T00:42:43;5.00;1.00
21189;DHT22;39071;52.420;20.896;2023-05-10T00:45:08;5.00;1.00
21189;DHT22;39071;52.420;20.896;2023-05-10T00:47:34;5.00;1.00
21189;DHT22;39071;52.420;20.896;2023-05-10T00:50:00;5.00;1.00
21189;DHT22;39071;52.420;20.896;2023-05-10T00:52:28;4.90;1.00
21189;DHT22;39071;52.420;20.896;2023-05-10T00:54:54;4.90;1.00
21189;DHT22;39071;52.420;20.896;2023-05-10T00:57:21;4.90;1.00
21189;DHT22;39071;52.420;20.896;2023-05-10T00:59:46;4.90;1.00
21189;DHT22;39071;52.420;20.896;2023-05-10T01:02:13;4.90;1.00
21189;DHT22;39071;52.420;20.896;2023-05-10T01:04:39;4.80;1.00
21189;DHT22;39071;52.420;20.896;2023-05-10T01:07:05;4.80;1.00
21189;DHT22;39071;52.420;20.896;2023-05-10T01:09:31;4.80;1.00
21189;DHT22;39071;52.420;20.896;2023-05-10T01:11:57;4.80;1.00
21189;DHT22;39071;52.420;20.896;2023-05-10T01:14:23;4.80;1.00
21189;DHT22;39071;52.420;20.896;2023-05-10T01:16:50;4.70;1.00
21189;DHT22;39071;52.420;20.896;2023-05-10T01:19:25;4.70;1.00
21189;DHT22;39071;52.420;20.896;2023-05-10T01:27:25;4.70;1.00
21189;DHT22;39071;52.420;20.896;2023-05-10T01:35:23;4.60;1.00
21189;DHT22;39071;52.420;20.896;2023-05-10T01:38:11;4.60;1.00
21189;DHT22;39071;52.420;20.896;2023-05-10T01:43:16;4.60;1.00
21189;DHT22;39071;52.420;20.896;2023-05-10T01:45:55;4.60;1.00
21189;DHT22;39071;52.420;20.896;2023-05-10T01:48:24;4.50;1.00
21189;DHT22;39071;52.420;20.896;2023-05-10T01:50:53;4.40;1.00
21189;DHT22;39071;52.420;20.896;2023-05-10T01:53:21;4.40;1.00
21189;DHT22;39071;52.420;20.896;2023-05-10T01:55:51;4.40;1.00
21189;DHT22;39071;52.420;20.896;2023-05-10T01:58:28;4.40;1.00
21189;DHT22;39071;52.420;20.896;2023-05-10T02:00:55;4.90;1.00
21189;DHT22;39071;52.420;20.896;2023-05-10T02:03:25;4.40;1.00
21189;DHT22;39071;52.420;20.896;2023-05-10T02:05:53;4.40;1.00
21189;DHT22;39071;52.420;20.896;2023-05-10T02:08:21;4.40;1.00
21189;DHT22;39071;52.420;20.896;2023-05-10T02:10:50;4.30;1.00
21189;DHT22;39071;52.420;20.896;2023-05-10T02:13:18;4.30;1.00
21189;DHT22;39071;52.420;20.896;2023-05-10T02:15:47;4.20;1.00
21189;DHT22;39071;52.420;20.896;2023-05-10T02:18:13;4.30;1.00
21189;DHT22;39071;52.420;20.896;2023-05-10T02:20:40;4.30;1.00
21189;DHT22;39071;52.420;20.896;2023-05-10T02:23:07;4.30;1.00
21189;DHT22;39071;52.420;20.896;2023-05-10T02:25:34;4.30;1.00
21189;DHT22;39071;52.420;20.896;2023-05-10T02:28:03;4.30;1.00
21189;DHT22;39071;52.420;20.896;2023-05-10T02:30:31;4.30;1.00
21189;DHT22;39071;52.420;20.896;2023-05-10T02:32:57;4.30;1.00
21189;DHT22;39071;52.420;20.896;2023-05-10T02:35:26;4.30;1.00
21189;DHT22;39071;52.420;20.896;2023-05-10T02:37:53;4.20;1.00
21189;DHT22;39071;52.420;20.896;2023-05-10T02:40:19;4.20;1.00
21189;DHT22;39071;52.420;20.896;2023-05-10T02:42:47;4.20;1.00
21189;DHT22;39071;52.420;20.896;2023-05-10T02:45:18;4.20;1.00
21189;DHT22;39071;52.420;20.896;2023-05-10T02:47:45;4.20;1.00
21189;DHT22;39071;52.420;20.896;2023-05-10T02:50:10;4.20;1.00
21189;DHT22;39071;52.420;20.896;2023-05-10T02:52:42;4.20;1.00
21189;DHT22;39071;52.420;20.896;2023-05-10T02:55:12;4.20;1.00
21189;DHT22;39071;52.420;20.896;2023-05-10T02:57:57;4.20;1.00
21189;DHT22;39071;52.420;20.896;2023-05-10T03:00:24;4.20;1.00
21189;DHT22;39071;52.420;20.896;2023-05-10T03:02:50;4.20;1.00
21189;DHT22;39071;52.420;20.896;2023-05-10T03:05:16;4.20;1.00
21189;DHT22;39071;52.420;20.896;2023-05-10T03:07:42;4.20;1.00
21189;DHT22;39071;52.420;20.896;2023-05-10T03:10:09;4.20;1.00
21189;DHT22;39071;52.420;20.896;2023-05-10T03:13:06;4.20;1.00
21189;DHT22;39071;52.420;20.896;2023-05-10T03:18:41;4.30;1.00
21189;DHT22;39071;52.420;20.896;2023-05-10T03:21:10;4.30;1.00
21189;DHT22;39071;52.420;20.896;2023-05-10T03:23:43;4.40;1.00
21189;DHT22;39071;52.420;20.896;2023-05-10T03:26:12;4.40;1.00
21189;DHT22;39071;52.420;20.896;2023-05-10T03:28:39;4.50;1.00
21189;DHT22;39071;52.420;20.896;2023-05-10T03:31:06;4.60;1.00
21189;DHT22;39071;52.420;20.896;2023-05-10T03:33:32;4.70;1.00
21189;DHT22;39071;52.420;20.896;2023-05-10T03:35:58;4.80;1.00
21189;DHT22;39071;52.420;20.896;2023-05-10T03:38:24;4.90;1.00
21189;DHT22;39071;52.420;20.896;2023-05-10T03:40:49;6.30;99.90
21189;DHT22;39071;52.420;20.896;2023-05-10T03:43:15;5.20;99.90
21189;DHT22;39071;52.420;20.896;2023-05-10T03:45:41;5.30;99.90
21189;DHT22;39071;52.420;20.896;2023-05-10T03:48:06;5.60;99.90
21189;DHT22;39071;52.420;20.896;2023-05-10T03:50:32;6.50;99.90
21189;DHT22;39071;52.420;20.896;2023-05-10T03:52:58;8.10;1.00
21189;DHT22;39071;52.420;20.896;2023-05-10T03:55:24;10.10;1.00
21189;DHT22;39071;52.420;20.896;2023-05-10T03:57:49;12.30;1.00
21189;DHT22;39071;52.420;20.896;2023-05-10T04:00:16;14.20;1.00
21189;DHT22;39071;52.420;20.896;2023-05-10T04:02:41;15.70;1.00
21189;DHT22;39071;52.420;20.896;2023-05-10T04:05:07;17.10;1.00
21189;DHT22;39071;52.420;20.896;2023-05-10T04:07:33;18.30;1.00
21189;DHT22;39071;52.420;20.896;2023-05-10T04:09:59;19.30;1.00
21189;DHT22;39071;52.420;20.896;2023-05-10T04:12:25;19.90;1.00
21189;DHT22;39071;52.420;20.896;2023-05-10T04:14:50;20.30;1.00
21189;DHT22;39071;52.420;20.896;2023-05-10T04:17:16;21.00;1.00
21189;DHT22;39071;52.420;20.896;2023-05-10T04:19:42;21.70;1.00
21189;DHT22;39071;52.420;20.896;2023-05-10T04:22:07;22.50;1.00
21189;DHT22;39071;52.420;20.896;2023-05-10T04:24:33;22.50;1.00
21189;DHT22;39071;52.420;20.896;2023-05-10T04:26:59;23.40;1.00
21189;DHT22;39071;52.420;20.896;2023-05-10T04:29:25;24.00;1.00
21189;DHT22;39071;52.420;20.896;2023-05-10T04:31:52;24.10;1.00
21189;DHT22;39071;52.420;20.896;2023-05-10T04:34:21;24.20;1.00
21189;DHT22;39071;52.420;20.896;2023-05-10T04:36:46;24.20;1.00
21189;DHT22;39071;52.420;20.896;2023-05-10T04:39:12;23.40;1.00
21189;DHT22;39071;52.420;20.896;2023-05-10T04:41:39;24.00;1.00
21189;DHT22;39071;52.420;20.896;2023-05-10T04:44:05;24.20;1.00
21189;DHT22;39071;52.420;20.896;2023-05-10T04:46:30;24.20;1.00
21189;DHT22;39071;52.420;20.896;2023-05-10T04:48:56;23.70;1.00
21189;DHT22;39071;52.420;20.896;2023-05-10T04:51:22;23.90;1.00
21189;DHT22;39071;52.420;20.896;2023-05-10T04:53:48;24.00;1.00
21189;DHT22;39071;52.420;20.896;2023-05-10T04:56:13;23.20;1.00
21189;DHT22;39071;52.420;20.896;2023-05-10T04:58:39;23.40;1.00
21189;DHT22;39071;52.420;20.896;2023-05-10T05:01:08;23.50;1.00
21189;DHT22;39071;52.420;20.896;2023-05-10T05:03:34;24.10;1.00
21189;DHT22;39071;52.420;20.896;2023-05-10T05:06:00;24.60;1.00
21189;DHT22;39071;52.420;20.896;2023-05-10T05:08:26;24.10;1.00
21189;DHT22;39071;52.420;20.896;2023-05-10T05:10:52;23.80;1.00
21189;DHT22;39071;52.420;20.896;2023-05-10T05:13:18;24.40;1.00
21189;DHT22;39071;52.420;20.896;2023-05-10T05:15:44;25.00;1.00
21189;DHT22;39071;52.420;20.896;2023-05-10T05:18:10;25.60;1.00
21189;DHT22;39071;52.420;20.896;2023-05-10T05:20:35;25.30;1.00
21189;DHT22;39071;52.420;20.896;2023-05-10T05:23:01;25.00;1.00
21189;DHT22;39071;52.420;20.896;2023-05-10T05:25:27;25.20;1.00
21189;DHT22;39071;52.420;20.896;2023-05-10T05:27:53;24.40;1.00
21189;DHT22;39071;52.420;20.896;2023-05-10T05:30:18;24.40;1.00
21189;DHT22;39071;52.420;20.896;2023-05-10T05:32:44;23.00;1.00
21189;DHT22;39071;52.420;20.896;2023-05-10T05:35:12;22.50;1.00
21189;DHT22;39071;52.420;20.896;2023-05-10T05:37:38;21.80;1.00
21189;DHT22;39071;52.420;20.896;2023-05-10T05:40:04;22.40;1.00
21189;DHT22;39071;52.420;20.896;2023-05-10T05:42:31;22.60;1.00
21189;DHT22;39071;52.420;20.896;2023-05-10T05:44:57;23.70;1.00
21189;DHT22;39071;52.420;20.896;2023-05-10T05:47:23;24.00;1.00
21189;DHT22;39071;52.420;20.896;2023-05-10T05:49:48;24.20;1.00
21189;DHT22;39071;52.420;20.896;2023-05-10T05:52:14;24.50;1.00
21189;DHT22;39071;52.420;20.896;2023-05-10T05:54:40;23.40;1.00
21189;DHT22;39071;52.420;20.896;2023-05-10T05:57:06;23.00;1.00
21189;DHT22;39071;52.420;20.896;2023-05-10T05:59:31;21.40;1.00
21189;DHT22;39071;52.420;20.896;2023-05-10T06:01:57;19.80;1.00
21189;DHT22;39071;52.420;20.896;2023-05-10T06:04:23;21.30;1.00
21189;DHT22;39071;52.420;20.896;2023-05-10T06:06:48;21.00;1.00
21189;DHT22;39071;52.420;20.896;2023-05-10T06:09:14;21.70;1.00
21189;DHT22;39071;52.420;20.896;2023-05-10T06:11:40;22.50;1.00
21189;DHT22;39071;52.420;20.896;2023-05-10T06:14:06;22.60;1.00
21189;DHT22;39071;52.420;20.896;2023-05-10T06:16:34;21.50;1.00
21189;DHT22;39071;52.420;20.896;2023-05-10T06:18:59;22.50;1.00
21189;DHT22;39071;52.420;20.896;2023-05-10T06:21:25;21.70;1.00
21189;DHT22;39071;52.420;20.896;2023-05-10T06:23:51;21.40;1.00
21189;DHT22;39071;52.420;20.896;2023-05-10T06:26:17;20.10;1.00
21189;DHT22;39071;52.420;20.896;2023-05-10T06:28:42;20.80;1.00
21189;DHT22;39071;52.420;20.896;2023-05-10T06:31:08;22.20;1.00
21189;DHT22;39071;52.420;20.896;2023-05-10T06:33:34;23.80;1.00
21189;DHT22;39071;52.420;20.896;2023-05-10T06:36:00;24.70;1.00
21189;DHT22;39071;52.420;20.896;2023-05-10T06:38:26;24.70;1.00
21189;DHT22;39071;52.420;20.896;2023-05-10T06:40:52;24.50;1.00
21189;DHT22;39071;52.420;20.896;2023-05-10T06:43:17;24.70;1.00
21189;DHT22;39071;52.420;20.896;2023-05-10T06:45:43;25.40;1.00
21189;DHT22;39071;52.420;20.896;2023-05-10T06:48:09;25.40;1.00
21189;DHT22;39071;52.420;20.896;2023-05-10T06:50:35;26.40;1.00
21189;DHT22;39071;52.420;20.896;2023-05-10T06:53:01;26.40;1.00
21189;DHT22;39071;52.420;20.896;2023-05-10T06:55:29;27.20;1.00
21189;DHT22;39071;52.420;20.896;2023-05-10T06:57:55;25.70;1.00
21189;DHT22;39071;52.420;20.896;2023-05-10T07:00:21;25.90;1.00
21189;DHT22;39071;52.420;20.896;2023-05-10T07:02:46;26.40;1.00
21189;DHT22;39071;52.420;20.896;2023-05-10T07:05:13;25.80;1.00
21189;DHT22;39071;52.420;20.896;2023-05-10T07:07:39;27.00;1.00
21189;DHT22;39071;52.420;20.896;2023-05-10T07:10:05;26.20;1.00
21189;DHT22;39071;52.420;20.896;2023-05-10T07:12:31;26.80;1.00
21189;DHT22;39071;52.420;20.896;2023-05-10T07:14:57;26.60;1.00
21189;DHT22;39071;52.420;20.896;2023-05-10T07:17:23;26.20;1.00
21189;DHT22;39071;52.420;20.896;2023-05-10T07:19:49;26.60;1.00
21189;DHT22;39071;52.420;20.896;2023-05-10T07:22:15;25.10;1.00
21189;DHT22;39071;52.420;20.896;2023-05-10T07:24:42;26.60;1.00
21189;DHT22;39071;52.420;20.896;2023-05-10T07:27:08;26.70;1.00
21189;DHT22;39071;52.420;20.896;2023-05-10T07:29:34;26.80;1.00
21189;DHT22;39071;52.420;20.896;2023-05-10T07:32:00;26.30;1.00
21189;DHT22;39071;52.420;20.896;2023-05-10T07:34:26;27.00;1.00
21189;DHT22;39071;52.420;20.896;2023-05-10T07:36:53;27.90;1.00
21189;DHT22;39071;52.420;20.896;2023-05-10T07:39:18;26.50;1.00
21189;DHT22;39071;52.420;20.896;2023-05-10T07:41:46;27.30;1.00
21189;DHT22;39071;52.420;20.896;2023-05-10T07:44:11;27.10;1.00
21189;DHT22;39071;52.420;20.896;2023-05-10T07:46:37;26.50;1.00
21189;DHT22;39071;52.420;20.896;2023-05-10T07:49:03;27.00;1.00
21189;DHT22;39071;52.420;20.896;2023-05-10T07:51:29;26.90;1.00
21189;DHT22;39071;52.420;20.896;2023-05-10T07:53:55;27.90;1.00
21189;DHT22;39071;52.420;20.896;2023-05-10T07:56:26;26.10;1.00
21189;DHT22;39071;52.420;20.896;2023-05-10T07:58:55;24.10;1.00
21189;DHT22;39071;52.420;20.896;2023-05-10T08:01:22;21.90;1.00
21189;DHT22;39071;52.420;20.896;2023-05-10T08:03:48;23.50;1.00
21189;DHT22;39071;52.420;20.896;2023-05-10T08:06:22;24.40;1.00
21189;DHT22;39071;52.420;20.896;2023-05-10T08:08:48;25.70;1.00
21189;DHT22;39071;52.420;20.896;2023-05-10T08:11:21;24.20;1.00
21189;DHT22;39071;52.420;20.896;2023-05-10T08:13:48;24.70;1.00
21189;DHT22;39071;52.420;20.896;2023-05-10T08:16:15;25.10;1.00
21189;DHT22;39071;52.420;20.896;2023-05-10T08:18:41;23.30;1.00
21189;DHT22;39071;52.420;20.896;2023-05-10T08:21:07;22.30;1.00
21189;DHT22;39071;52.420;20.896;2023-05-10T08:23:33;22.10;1.00
21189;DHT22;39071;52.420;20.896;2023-05-10T08:25:59;21.80;1.00
21189;DHT22;39071;52.420;20.896;2023-05-10T08:28:25;23.10;1.00
21189;DHT22;39071;52.420;20.896;2023-05-10T08:30:51;23.50;1.00
21189;DHT22;39071;52.420;20.896;2023-05-10T08:33:19;23.20;1.00
21189;DHT22;39071;52.420;20.896;2023-05-10T08:35:45;23.30;1.00
21189;DHT22;39071;52.420;20.896;2023-05-10T08:38:11;22.20;1.00
21189;DHT22;39071;52.420;20.896;2023-05-10T08:40:39;22.60;1.00
21189;DHT22;39071;52.420;20.896;2023-05-10T08:43:08;23.00;1.00
21189;DHT22;39071;52.420;20.896;2023-05-10T08:45:41;22.80;1.00
21189;DHT22;39071;52.420;20.896;2023-05-10T08:48:08;22.30;1.00
21189;DHT22;39071;52.420;20.896;2023-05-10T08:50:39;21.90;1.00
21189;DHT22;39071;52.420;20.896;2023-05-10T08:53:09;21.90;1.00
21189;DHT22;39071;52.420;20.896;2023-05-10T08:55:35;20.30;1.00
21189;DHT22;39071;52.420;20.896;2023-05-10T08:58:06;20.50;1.00
21189;DHT22;39071;52.420;20.896;2023-05-10T09:00:32;21.10;1.00
21189;DHT22;39071;52.420;20.896;2023-05-10T09:02:59;21.00;1.00
21189;DHT22;39071;52.420;20.896;2023-05-10T09:05:25;21.30;1.00
21189;DHT22;39071;52.420;20.896;2023-05-10T09:07:51;21.80;1.00
21189;DHT22;39071;52.420;20.896;2023-05-10T09:10:19;20.30;1.00
21189;DHT22;39071;52.420;20.896;2023-05-10T09:12:45;20.00;1.00
21189;DHT22;39071;52.420;20.896;2023-05-10T09:15:12;20.50;1.00
21189;DHT22;39071;52.420;20.896;2023-05-10T09:17:40;20.90;1.00
21189;DHT22;39071;52.420;20.896;2023-05-10T09:20:06;21.50;1.00
21189;DHT22;39071;52.420;20.896;2023-05-10T09:22:33;21.10;1.00
21189;DHT22;39071;52.420;20.896;2023-05-10T09:25:10;20.30;1.00
21189;DHT22;39071;52.420;20.896;2023-05-10T09:27:38;19.80;1.00
21189;DHT22;39071;52.420;20.896;2023-05-10T09:30:05;20.00;1.00
21189;DHT22;39071;52.420;20.896;2023-05-10T09:32:42;20.50;1.00
21189;DHT22;39071;52.420;20.896;2023-05-10T09:37:42;20.30;1.00
21189;DHT22;39071;52.420;20.896;2023-05-10T09:40:12;20.10;1.00
21189;DHT22;39071;52.420;20.896;2023-05-10T09:42:38;20.00;1.00
21189;DHT22;39071;52.420;20.896;2023-05-10T09:45:05;19.90;1.00
21189;DHT22;39071;52.420;20.896;2023-05-10T09:47:34;19.60;1.00
21189;DHT22;39071;52.420;20.896;2023-05-10T09:50:02;19.40;1.00
21189;DHT22;39071;52.420;20.896;2023-05-10T09:52:30;19.40;1.00
21189;DHT22;39071;52.420;20.896;2023-05-10T09:54:56;19.80;1.00
21189;DHT22;39071;52.420;20.896;2023-05-10T09:57:23;19.60;1.00
21189;DHT22;39071;52.420;20.896;2023-05-10T09:59:50;20.10;1.00
21189;DHT22;39071;52.420;20.896;2023-05-10T10:02:16;20.40;1.00
21189;DHT22;39071;52.420;20.896;2023-05-10T10:04:43;20.40;1.00
21189;DHT22;39071;52.420;20.896;2023-05-10T10:07:09;20.40;1.00
21189;DHT22;39071;52.420;20.896;2023-05-10T10:09:35;19.80;1.00
21189;DHT22;39071;52.420;20.896;2023-05-10T10:12:02;19.40;1.00
21189;DHT22;39071;52.420;20.896;2023-05-10T10:14:28;19.30;1.00
21189;DHT22;39071;52.420;20.896;2023-05-10T10:16:54;19.50;1.00
21189;DHT22;39071;52.420;20.896;2023-05-10T10:19:21;19.80;1.00
21189;DHT22;39071;52.420;20.896;2023-05-10T10:21:49;19.90;1.00
21189;DHT22;39071;52.420;20.896;2023-05-10T10:24:15;19.80;1.00
21189;DHT22;39071;52.420;20.896;2023-05-10T10:26:42;20.10;1.00
21189;DHT22;39071;52.420;20.896;2023-05-10T10:34:32;20.00;1.00
21189;DHT22;39071;52.420;20.896;2023-05-10T10:36:58;19.90;1.00
21189;DHT22;39071;52.420;20.896;2023-05-10T10:39:29;19.70;1.00
21189;DHT22;39071;52.420;20.896;2023-05-10T10:41:56;20.10;1.00
21189;DHT22;39071;52.420;20.896;2023-05-10T10:52:25;20.10;1.00
21189;DHT22;39071;52.420;20.896;2023-05-10T10:55:05;20.20;1.00
21189;DHT22;39071;52.420;20.896;2023-05-10T11:00:29;19.80;1.00
21189;DHT22;39071;52.420;20.896;2023-05-10T11:03:12;19.70;1.00
21189;DHT22;39071;52.420;20.896;2023-05-10T11:05:51;20.10;1.00
21189;DHT22;39071;52.420;20.896;2023-05-10T11:08:30;20.50;1.00
21189;DHT22;39071;52.420;20.896;2023-05-10T11:13:34;20.20;1.00
21189;DHT22;39071;52.420;20.896;2023-05-10T11:16:11;20.30;1.00
21189;DHT22;39071;52.420;20.896;2023-05-10T11:18:37;19.90;1.00
21189;DHT22;39071;52.420;20.896;2023-05-10T11:21:03;19.70;1.00
21189;DHT22;39071;52.420;20.896;2023-05-10T11:26:07;20.00;1.00
21189;DHT22;39071;52.420;20.896;2023-05-10T11:28:41;20.00;1.00
21189;DHT22;39071;52.420;20.896;2023-05-10T11:31:07;20.10;1.00
21189;DHT22;39071;52.420;20.896;2023-05-10T11:33:45;20.20;1.00
21189;DHT22;39071;52.420;20.896;2023-05-10T11:36:16;20.40;1.00
21189;DHT22;39071;52.420;20.896;2023-05-10T11:38:42;20.60;1.00
21189;DHT22;39071;52.420;20.896;2023-05-10T11:41:09;20.30;1.00
21189;DHT22;39071;52.420;20.896;2023-05-10T11:43:35;20.40;1.00
21189;DHT22;39071;52.420;20.896;2023-05-10T11:46:11;20.20;1.00
21189;DHT22;39071;52.420;20.896;2023-05-10T11:48:41;19.90;1.00
21189;DHT22;39071;52.420;20.896;2023-05-10T11:51:10;19.90;1.00
21189;DHT22;39071;52.420;20.896;2023-05-10T11:53:36;19.80;1.00
21189;DHT22;39071;52.420;20.896;2023-05-10T11:56:10;19.90;1.00
21189;DHT22;39071;52.420;20.896;2023-05-10T11:58:38;19.80;1.00
21189;DHT22;39071;52.420;20.896;2023-05-10T12:01:05;19.90;1.00
21189;DHT22;39071;52.420;20.896;2023-05-10T12:03:31;19.90;1.00
21189;DHT22;39071;52.420;20.896;2023-05-10T12:05:58;20.00;1.00
21189;DHT22;39071;52.420;20.896;2023-05-10T12:08:25;19.90;1.00
21189;DHT22;39071;52.420;20.896;2023-05-10T12:10:52;20.10;1.00
21189;DHT22;39071;52.420;20.896;2023-05-10T12:13:20;20.50;1.00
21189;DHT22;39071;52.420;20.896;2023-05-10T12:15:46;20.20;1.00
21189;DHT22;39071;52.420;20.896;2023-05-10T12:18:14;20.30;1.00
21189;DHT22;39071;52.420;20.896;2023-05-10T12:20:40;20.20;1.00
21189;DHT22;39071;52.420;20.896;2023-05-10T12:23:08;20.30;1.00
21189;DHT22;39071;52.420;20.896;2023-05-10T12:25:36;20.10;1.00
21189;DHT22;39071;52.420;20.896;2023-05-10T12:28:07;19.90;1.00
21189;DHT22;39071;52.420;20.896;2023-05-10T12:30:35;20.20;1.00
21189;DHT22;39071;52.420;20.896;2023-05-10T12:33:12;19.90;1.00
21189;DHT22;39071;52.420;20.896;2023-05-10T12:38:32;19.70;1.00
21189;DHT22;39071;52.420;20.896;2023-05-10T12:40:59;19.80;1.00
21189;DHT22;39071;52.420;20.896;2023-05-10T12:43:26;20.00;1.00
21189;DHT22;39071;52.420;20.896;2023-05-10T12:45:52;20.10;1.00
21189;DHT22;39071;52.420;20.896;2023-05-10T12:48:18;19.80;1.00
21189;DHT22;39071;52.420;20.896;2023-05-10T12:50:44;19.90;1.00
21189;DHT22;39071;52.420;20.896;2023-05-10T12:53:09;19.90;1.00
21189;DHT22;39071;52.420;20.896;2023-05-10T12:55:35;19.50;1.00
21189;DHT22;39071;52.420;20.896;2023-05-10T12:58:01;19.40;1.00
21189;DHT22;39071;52.420;20.896;2023-05-10T13:00:26;19.30;1.00
21189;DHT22;39071;52.420;20.896;2023-05-10T13:02:52;19.30;1.00
21189;DHT22;39071;52.420;20.896;2023-05-10T13:05:18;19.20;1.00
21189;DHT22;39071;52.420;20.896;2023-05-10T13:07:44;19.20;1.00
21189;DHT22;39071;52.420;20.896;2023-05-10T13:10:10;19.50;1.00
21189;DHT22;39071;52.420;20.896;2023-05-10T13:12:37;19.40;1.00
21189;DHT22;39071;52.420;20.896;2023-05-10T13:15:03;19.10;1.00
21189;DHT22;39071;52.420;20.896;2023-05-10T13:17:29;19.20;1.00
21189;DHT22;39071;52.420;20.896;2023-05-10T13:19:55;19.40;1.00
21189;DHT22;39071;52.420;20.896;2023-05-10T13:22:21;19.20;1.00
21189;DHT22;39071;52.420;20.896;2023-05-10T13:24:47;19.10;1.00
21189;DHT22;39071;52.420;20.896;2023-05-10T13:27:12;19.20;1.00
21189;DHT22;39071;52.420;20.896;2023-05-10T13:29:38;19.50;1.00
21189;DHT22;39071;52.420;20.896;2023-05-10T13:32:04;19.50;1.00
21189;DHT22;39071;52.420;20.896;2023-05-10T13:34:30;19.20;1.00
21189;DHT22;39071;52.420;20.896;2023-05-10T13:36:56;19.40;1.00
21189;DHT22;39071;52.420;20.896;2023-05-10T13:39:22;19.60;1.00
21189;DHT22;39071;52.420;20.896;2023-05-10T13:41:48;19.60;1.00
21189;DHT22;39071;52.420;20.896;2023-05-10T13:44:14;19.30;1.00
21189;DHT22;39071;52.420;20.896;2023-05-10T13:46:41;19.40;1.00
21189;DHT22;39071;52.420;20.896;2023-05-10T13:49:09;19.50;1.00
21189;DHT22;39071;52.420;20.896;2023-05-10T13:51:35;19.50;1.00
21189;DHT22;39071;52.420;20.896;2023-05-10T13:54:02;19.40;1.00
21189;DHT22;39071;52.420;20.896;2023-05-10T13:56:41;19.40;1.00
21189;DHT22;39071;52.420;20.896;2023-05-10T13:59:08;19.10;1.00
21189;DHT22;39071;52.420;20.896;2023-05-10T14:01:34;19.30;1.00
21189;DHT22;39071;52.420;20.896;2023-05-10T14:04:00;19.30;1.00
21189;DHT22;39071;52.420;20.896;2023-05-10T14:06:25;19.20;1.00
21189;DHT22;39071;52.420;20.896;2023-05-10T14:08:52;19.30;1.00
21189;DHT22;39071;52.420;20.896;2023-05-10T14:11:19;19.50;1.00
21189;DHT22;39071;52.420;20.896;2023-05-10T14:13:46;19.50;1.00
21189;DHT22;39071;52.420;20.896;2023-05-10T14:16:11;19.60;1.00
21189;DHT22;39071;52.420;20.896;2023-05-10T14:18:40;19.30;1.00
21189;DHT22;39071;52.420;20.896;2023-05-10T14:21:06;19.20;1.00
21189;DHT22;39071;52.420;20.896;2023-05-10T14:23:32;19.20;1.00
21189;DHT22;39071;52.420;20.896;2023-05-10T14:25:57;19.00;1.00
21189;DHT22;39071;52.420;20.896;2023-05-10T14:28:23;19.00;1.00
21189;DHT22;39071;52.420;20.896;2023-05-10T14:30:50;19.00;1.00
21189;DHT22;39071;52.420;20.896;2023-05-10T14:33:17;18.80;1.00
21189;DHT22;39071;52.420;20.896;2023-05-10T14:35:42;18.70;1.00
21189;DHT22;39071;52.420;20.896;2023-05-10T14:38:08;18.70;1.00
21189;DHT22;39071;52.420;20.896;2023-05-10T14:40:34;18.70;1.00
21189;DHT22;39071;52.420;20.896;2023-05-10T14:43:00;18.80;1.00
21189;DHT22;39071;52.420;20.896;2023-05-10T14:45:26;18.90;1.00
21189;DHT22;39071;52.420;20.896;2023-05-10T14:47:52;19.10;1.00
21189;DHT22;39071;52.420;20.896;2023-05-10T14:50:18;19.10;1.00
21189;DHT22;39071;52.420;20.896;2023-05-10T14:55:59;19.30;1.00
21189;DHT22;39071;52.420;20.896;2023-05-10T14:58:27;19.10;1.00
21189;DHT22;39071;52.420;20.896;2023-05-10T15:00:53;18.90;1.00
21189;DHT22;39071;52.420;20.896;2023-05-10T15:03:19;18.90;1.00
21189;DHT22;39071;52.420;20.896;2023-05-10T15:05:46;19.00;1.00
21189;DHT22;39071;52.420;20.896;2023-05-10T15:08:11;18.70;1.00
21189;DHT22;39071;52.420;20.896;2023-05-10T15:10:38;18.70;1.00
21189;DHT22;39071;52.420;20.896;2023-05-10T15:13:04;18.80;1.00
21189;DHT22;39071;52.420;20.896;2023-05-10T15:15:30;19.00;1.00
21189;DHT22;39071;52.420;20.896;2023-05-10T15:17:56;18.90;1.00
21189;DHT22;39071;52.420;20.896;2023-05-10T15:20:22;18.90;1.00
21189;DHT22;39071;52.420;20.896;2023-05-10T15:22:48;18.80;1.00
21189;DHT22;39071;52.420;20.896;2023-05-10T15:25:14;18.80;1.00
21189;DHT22;39071;52.420;20.896;2023-05-10T15:27:41;18.80;1.00
21189;DHT22;39071;52.420;20.896;2023-05-10T15:30:09;18.70;1.00
21189;DHT22;39071;52.420;20.896;2023-05-10T15:32:35;18.70;1.00
21189;DHT22;39071;52.420;20.896;2023-05-10T15:35:02;18.70;1.00
21189;DHT22;39071;52.420;20.896;2023-05-10T15:37:28;18.70;1.00
21189;DHT22;39071;52.420;20.896;2023-05-10T15:39:54;18.80;1.00
21189;DHT22;39071;52.420;20.896;2023-05-10T15:42:27;18.80;1.00
21189;DHT22;39071;52.420;20.896;2023-05-10T15:44:53;18.70;1.00
21189;DHT22;39071;52.420;20.896;2023-05-10T15:47:19;18.70;1.00
21189;DHT22;39071;52.420;20.896;2023-05-10T15:49:45;18.70;1.00
21189;DHT22;39071;52.420;20.896;2023-05-10T15:52:11;18.50;1.00
21189;DHT22;39071;52.420;20.896;2023-05-10T15:54:37;18.60;1.00
21189;DHT22;39071;52.420;20.896;2023-05-10T15:57:02;18.40;1.00
21189;DHT22;39071;52.420;20.896;2023-05-10T15:59:28;18.30;1.00
21189;DHT22;39071;52.420;20.896;2023-05-10T16:01:54;18.10;1.00
21189;DHT22;39071;52.420;20.896;2023-05-10T16:04:21;18.00;1.00
21189;DHT22;39071;52.420;20.896;2023-05-10T16:06:47;18.00;1.00
21189;DHT22;39071;52.420;20.896;2023-05-10T16:09:13;17.80;1.00
21189;DHT22;39071;52.420;20.896;2023-05-10T16:11:39;17.80;1.00
21189;DHT22;39071;52.420;20.896;2023-05-10T16:14:04;17.80;1.00
21189;DHT22;39071;52.420;20.896;2023-05-10T16:16:30;17.60;1.00
21189;DHT22;39071;52.420;20.896;2023-05-10T16:18:57;17.60;1.00
21189;DHT22;39071;52.420;20.896;2023-05-10T16:21:25;17.40;1.00